Time;durP1;ratioP1;P1;durP2;ratioP2;P2;SDS_P1;SDS_P2;PMS_P1;PMS_P2;Temp;Humidity;BMP_temperature;BMP_pressure;BME280_temperature;BME280_humidity;BME280_pressure;Samples;Min_cycle;Max_cycle;Signal;HPM_P1;HPM_P2
2021/12/05 00:23:44;;;;;;;13.15;11.63;;;-3.40;83.30;-3.90;97992.00;;;;4971096;28;87076;-64
2021/12/05 00:26:16;;;;;;;14.15;12.68;;;-3.40;83.10;-4.00;97988.00;;;;4983307;28;87665;-64
2021/12/05 00:39:56;;;;;;;15.98;14.35;;;-3.50;83.80;-4.00;98000.00;;;;4983242;28;87188;-60
2021/12/05 00:43:14;;;;;;;16.27;14.10;;;-3.40;83.90;-4.00;97997.00;;;;4983273;28;86897;-61
2021/12/05 01:04:02;;;;;;;17.85;15.70;;;-3.40;84.90;-3.90;97983.00;;;;4978175;28;87831;-61
2021/12/05 01:14:27;;;;;;;17.35;15.18;;;-3.30;85.00;-3.90;97984.00;;;;4978818;28;87172;-61
2021/12/05 01:16:53;;;;;;;19.50;16.55;;;-3.30;85.00;-3.90;97989.00;;;;4994030;28;87063;-61
2021/12/05 01:19:22;;;;;;;16.77;15.00;;;-3.40;84.90;-3.90;97975.00;;;;4998293;28;88401;-61
2021/12/05 01:21:54;;;;;;;18.25;15.27;;;-3.40;84.90;-3.90;97975.00;;;;4983244;28;87492;-61
2021/12/05 01:29:38;;;;;;;16.05;14.23;;;-3.40;84.90;-4.00;97973.00;;;;4962182;28;88695;-61
2021/12/05 01:32:33;;;;;;;17.17;14.93;;;-3.40;84.90;-3.90;97981.00;;;;4945523;28;91415;-62
2021/12/05 01:41:00;;;;;;;17.50;15.52;;;-3.40;85.00;-4.00;97977.00;;;;4950111;28;88928;-61
2021/12/05 02:40:33;;;;;;;23.10;18.50;;;-2.70;87.00;-3.10;97987.00;;;;4977744;28;87034;-61
2021/12/05 02:43:08;;;;;;;24.92;19.85;;;-2.60;87.20;-3.00;97977.00;;;;4962653;28;86276;-61
2021/12/05 02:45:38;;;;;;;22.58;20.30;;;-2.50;87.20;-3.00;97984.00;;;;4977121;28;88552;-61
2021/12/05 02:48:09;;;;;;;21.45;19.10;;;-2.50;87.20;-3.00;97986.00;;;;4975970;28;87234;-61
2021/12/05 02:50:37;;;;;;;21.23;19.13;;;-2.50;87.50;-2.90;97976.00;;;;4961801;28;87987;-61
2021/12/05 02:53:15;;;;;;;24.17;21.60;;;-2.50;87.50;-2.90;97983.00;;;;4960911;28;87067;-62
2021/12/05 02:55:44;;;;;;;27.52;21.92;;;-2.40;87.40;-2.90;97977.00;;;;4960413;28;88535;-61
2021/12/05 02:58:17;;;;;;;23.15;20.55;;;-2.40;87.60;-2.90;97984.00;;;;4961801;28;87411;-62
2021/12/05 03:01:06;;;;;;;24.13;21.65;;;-2.40;87.60;-2.80;97983.00;;;;4977005;28;87008;-62
2021/12/05 03:03:35;;;;;;;24.55;20.30;;;-2.40;87.60;-2.80;97981.00;;;;4977081;28;87098;-61
2021/12/05 03:06:20;;;;;;;23.85;21.27;;;-2.40;87.70;-2.80;97986.00;;;;4976755;28;88639;-62
2021/12/05 03:08:52;;;;;;;24.88;22.02;;;-2.40;87.70;-2.80;97982.00;;;;4976905;28;88154;-62
2021/12/05 03:11:21;;;;;;;24.02;21.50;;;-2.30;87.70;-2.80;97981.00;;;;4977052;28;87149;-61
2021/12/05 03:13:48;;;;;;;23.02;20.83;;;-2.40;87.60;-2.80;97982.00;;;;4961634;28;87292;-61
2021/12/05 03:16:17;;;;;;;22.30;19.98;;;-2.30;87.90;-2.80;97984.00;;;;4971925;28;88611;-61
2021/12/05 03:18:44;;;;;;;24.27;21.83;;;-2.30;87.90;-2.70;97976.00;;;;4996198;28;89243;-61
2021/12/05 03:21:13;;;;;;;26.23;23.27;;;-2.30;87.70;-2.70;97986.00;;;;4995871;28;86924;-62
2021/12/05 03:23:42;;;;;;;24.17;21.50;;;-2.30;87.70;-2.70;97987.00;;;;4973290;28;87183;-61
2021/12/05 03:26:14;;;;;;;25.73;21.83;;;-2.30;87.80;-2.70;97984.00;;;;4960478;28;87593;-60
2021/12/05 03:28:41;;;;;;;27.60;23.17;;;-2.30;87.80;-2.70;97995.00;;;;4976237;28;88275;-61
2021/12/05 03:31:09;;;;;;;23.35;20.92;;;-2.30;87.70;-2.70;97992.00;;;;4960263;28;87123;-61
2021/12/05 03:33:37;;;;;;;22.75;20.40;;;-2.30;87.80;-2.70;97986.00;;;;4960675;28;86683;-61
2021/12/05 03:36:09;;;;;;;26.23;19.52;;;-2.30;87.80;-2.70;97996.00;;;;4959908;28;88595;-61
2021/12/05 03:38:40;;;;;;;23.05;20.48;;;-2.20;87.80;-2.70;97993.00;;;;4974307;28;88831;-62
2021/12/05 03:41:11;;;;;;;23.65;21.15;;;-2.20;87.60;-2.70;97995.00;;;;4979429;28;88072;-62
2021/12/05 03:43:41;;;;;;;24.73;21.50;;;-2.30;87.50;-2.70;98004.00;;;;4979893;28;87296;-62
2021/12/05 03:46:09;;;;;;;25.10;20.13;;;-2.30;87.60;-2.70;98002.00;;;;4979526;28;88600;-61
2021/12/05 03:48:43;;;;;;;24.70;21.58;;;-2.20;87.80;-2.70;98009.00;;;;4980609;28;87378;-61
2021/12/05 03:51:13;;;;;;;24.05;19.75;;;-2.30;87.70;-2.70;98015.00;;;;4980133;28;87060;-62
2021/12/05 03:53:41;;;;;;;26.37;21.87;;;-2.30;88.00;-2.70;98018.00;;;;4979870;28;87334;-60
2021/12/05 03:56:08;;;;;;;24.77;21.42;;;-2.20;87.90;-2.70;98028.00;;;;4980163;28;88799;-61
2021/12/05 03:58:39;;;;;;;25.95;21.67;;;-2.20;87.70;-2.70;98016.00;;;;4980796;28;87485;-61
2021/12/05 04:01:10;;;;;;;24.48;21.38;;;-2.20;87.70;-2.70;98012.00;;;;4999624;28;87013;-61
2021/12/05 04:03:41;;;;;;;25.60;22.10;;;-2.20;87.80;-2.70;98002.00;;;;4983347;28;87083;-61
2021/12/05 04:06:11;;;;;;;25.00;21.10;;;-2.20;87.90;-2.70;98011.00;;;;4983006;28;89081;-62
2021/12/05 04:08:40;;;;;;;24.55;22.05;;;-2.20;88.00;-2.60;98017.00;;;;4999062;28;89781;-61
2021/12/05 04:11:30;;;;;;;24.10;20.98;;;-2.20;87.90;-2.60;98008.00;;;;4982989;28;87064;-61
2021/12/05 04:13:57;;;;;;;24.55;19.98;;;-2.20;87.70;-2.60;98026.00;;;;4999604;28;87009;-61
2021/12/05 04:16:25;;;;;;;24.50;21.83;;;-2.20;87.70;-2.60;98009.00;;;;4987672;28;87514;-61
2021/12/05 04:18:53;;;;;;;25.42;20.35;;;-2.20;87.50;-2.60;98024.00;;;;4979179;28;88781;-61
2021/12/05 04:21:20;;;;;;;25.23;22.55;;;-2.10;87.60;-2.60;98022.00;;;;4984555;28;87429;-61
2021/12/05 04:23:48;;;;;;;25.85;22.13;;;-2.20;87.40;-2.60;98022.00;;;;4975527;28;86530;-60
2021/12/05 04:26:17;;;;;;;23.67;21.10;;;-2.10;87.70;-2.60;98018.00;;;;4962936;28;88838;-61
2021/12/05 04:28:44;;;;;;;24.67;21.45;;;-2.10;87.60;-2.60;98038.00;;;;4962813;28;88425;-61
2021/12/05 04:31:11;;;;;;;24.08;21.65;;;-2.20;87.60;-2.60;98021.00;;;;4962610;28;88019;-61
2021/12/05 04:33:38;;;;;;;23.27;20.85;;;-2.10;87.70;-2.60;98023.00;;;;4962716;28;87231;-62
2021/12/05 04:36:06;;;;;;;24.13;21.70;;;-2.10;87.60;-2.50;98025.00;;;;4962943;28;88498;-61
2021/12/05 04:38:32;;;;;;;22.90;20.45;;;-2.10;87.40;-2.60;98028.00;;;;4963713;28;87405;-61
2021/12/05 04:40:59;;;;;;;25.73;23.02;;;-2.20;87.30;-2.60;98037.00;;;;4963191;28;86972;-62
2021/12/05 04:43:25;;;;;;;24.52;22.02;;;-2.20;87.70;-2.60;98032.00;;;;4962718;28;87316;-61
2021/12/05 04:45:53;;;;;;;26.08;23.42;;;-2.20;87.80;-2.60;98037.00;;;;4962631;28;88899;-61
2021/12/05 04:48:19;;;;;;;24.92;22.13;;;-2.20;87.60;-2.70;98029.00;;;;4962921;28;87432;-61
2021/12/05 04:50:47;;;;;;;28.42;22.80;;;-2.20;87.80;-2.60;98037.00;;;;4979086;28;86993;-60
2021/12/05 04:53:13;;;;;;;24.67;20.45;;;-2.20;87.80;-2.60;98037.00;;;;4962699;28;87059;-60
2021/12/05 04:55:40;;;;;;;24.02;21.58;;;-2.20;87.70;-2.60;98034.00;;;;4962780;28;88677;-61
2021/12/05 04:58:12;;;;;;;23.63;21.05;;;-2.20;87.60;-2.60;98041.00;;;;4979193;28;88526;-61
2021/12/05 05:00:44;;;;;;;24.52;21.88;;;-2.10;87.70;-2.60;98036.00;;;;4978540;28;86961;-61
2021/12/05 05:03:11;;;;;;;25.48;22.42;;;-2.20;87.50;-2.60;98040.00;;;;4964039;28;86964;-63
2021/12/05 05:05:44;;;;;;;24.67;22.08;;;-2.10;87.60;-2.60;98043.00;;;;4963177;28;87699;-63
2021/12/05 05:08:10;;;;;;;25.20;22.80;;;-2.10;87.60;-2.60;98048.00;;;;4963135;28;87410;-63
2021/12/05 05:10:36;;;;;;;24.88;22.25;;;-2.10;87.50;-2.60;98049.00;;;;4962605;28;86996;-62
2021/12/05 05:13:05;;;;;;;24.92;22.42;;;-2.20;87.50;-2.60;98043.00;;;;4963519;28;86401;-61
2021/12/05 05:15:31;;;;;;;27.10;22.92;;;-2.20;87.70;-2.60;98037.00;;;;4966671;28;88303;-60
2021/12/05 05:18:00;;;;;;;25.02;22.33;;;-2.20;87.80;-2.60;98053.00;;;;4982858;28;87486;-63
2021/12/05 05:20:38;;;;;;;28.77;24.40;;;-2.20;87.60;-2.60;98049.00;;;;4982189;28;87883;-62
2021/12/05 05:28:55;;;;;;;25.42;22.60;;;-2.10;87.80;-2.60;98053.00;;;;4964951;28;88172;-64
2021/12/05 05:45:24;;;;;;;25.75;23.02;;;-2.10;86.90;-2.50;98087.00;;;;4962977;28;86957;-61
2021/12/05 05:48:03;;;;;;;25.75;23.02;;;-2.10;87.10;-2.50;98081.00;;;;4971155;28;88524;-60
2021/12/05 05:50:29;;;;;;;26.52;23.73;;;-2.00;87.30;-2.50;98093.00;;;;4982085;28;88395;-60
2021/12/05 05:52:56;;;;;;;26.45;23.48;;;-2.10;87.50;-2.50;98083.00;;;;4982514;28;87313;-60
2021/12/05 05:55:22;;;;;;;24.92;22.35;;;-2.10;87.20;-2.50;98085.00;;;;4981846;28;87099;-59
2021/12/05 06:00:33;;;;;;;24.55;22.13;;;-2.00;87.10;-2.40;98096.00;;;;4982140;28;87916;-61
2021/12/05 06:05:55;;;;;;;26.02;23.38;;;-2.00;87.00;-2.50;98082.00;;;;4982758;28;86462;-60
2021/12/05 06:08:24;;;;;;;24.73;22.20;;;-2.00;87.10;-2.50;98088.00;;;;4981532;28;88564;-60
2021/12/05 06:10:57;;;;;;;25.10;22.42;;;-2.00;87.20;-2.50;98090.00;;;;4981635;28;89632;-61
2021/12/05 06:13:26;;;;;;;24.38;21.80;;;-2.00;87.20;-2.40;98094.00;;;;4981361;28;87845;-60
2021/12/05 06:15:52;;;;;;;26.50;23.70;;;-2.00;87.20;-2.40;98092.00;;;;4974727;28;87182;-60
2021/12/05 06:18:19;;;;;;;23.98;21.52;;;-2.00;87.10;-2.50;98090.00;;;;4962249;28;87305;-60
2021/12/05 06:20:45;;;;;;;28.40;21.05;;;-2.00;87.40;-2.40;98090.00;;;;4962166;28;87611;-59
2021/12/05 06:23:13;;;;;;;22.95;20.52;;;-2.00;87.30;-2.40;98088.00;;;;4968423;28;87366;-61
2021/12/05 06:25:48;;;;;;;25.17;22.60;;;-2.00;87.10;-2.40;98093.00;;;;4961879;28;87046;-61
2021/12/05 06:28:16;;;;;;;24.83;22.05;;;-1.90;86.70;-2.40;98101.00;;;;4944697;28;90095;-61
2021/12/05 06:31:01;;;;;;;24.50;21.95;;;-2.00;86.70;-2.40;98104.00;;;;4962154;28;87401;-61
2021/12/05 06:47:13;;;;;;;25.15;21.33;;;-1.90;86.50;-2.40;98129.00;;;;4961499;28;87096;-62
2021/12/05 06:49:42;;;;;;;23.45;20.92;;;-1.90;86.50;-2.40;98124.00;;;;4976592;28;90374;-61
2021/12/05 06:52:10;;;;;;;22.20;19.75;;;-1.90;86.60;-2.30;98117.00;;;;4961674;28;88029;-60
2021/12/05 06:54:39;;;;;;;24.52;21.60;;;-1.90;86.40;-2.30;98137.00;;;;4961438;28;87061;-62
2021/12/05 06:57:07;;;;;;;23.88;21.40;;;-1.90;86.40;-2.30;98131.00;;;;4961929;28;86053;-62
2021/12/05 06:59:38;;;;;;;26.73;24.02;;;-1.90;86.40;-2.30;98131.00;;;;4976445;28;89860;-61
2021/12/05 07:02:06;;;;;;;23.33;20.88;;;-1.90;86.40;-2.30;98136.00;;;;4961484;28;87424;-62
2021/12/05 07:07:18;;;;;;;24.95;22.55;;;-1.80;86.50;-2.20;98148.00;;;;4961589;28;86977;-62
2021/12/05 07:09:45;;;;;;;24.85;21.90;;;-1.80;86.40;-2.30;98141.00;;;;4961518;28;87482;-62
2021/12/05 07:15:11;;;;;;;23.60;21.05;;;-1.80;86.40;-2.20;98158.00;;;;4982623;28;87485;-62
2021/12/05 07:20:28;;;;;;;23.83;21.30;;;-1.80;86.30;-2.20;98148.00;;;;4961070;28;87825;-62
2021/12/05 07:23:17;;;;;;;23.05;20.75;;;-1.80;86.00;-2.10;98159.00;;;;4967878;28;87544;-62
2021/12/05 07:25:52;;;;;;;23.00;20.55;;;-1.70;86.00;-2.10;98155.00;;;;4961326;28;86841;-63
2021/12/05 07:42:14;;;;;;;22.63;19.85;;;-1.50;85.20;-1.80;98161.00;;;;4961419;28;87557;-63
2021/12/05 07:44:41;;;;;;;23.38;19.10;;;-1.50;85.00;-1.80;98160.00;;;;4959764;28;88387;-63
2021/12/05 07:47:07;;;;;;;20.17;18.08;;;-1.40;85.00;-1.80;98170.00;;;;4960668;28;87154;-62
2021/12/05 07:49:33;;;;;;;23.00;20.50;;;-1.40;85.10;-1.70;98162.00;;;;4961279;28;86199;-62
2021/12/05 07:51:59;;;;;;;24.23;21.63;;;-1.40;84.90;-1.80;98156.00;;;;4960686;28;87579;-62
2021/12/05 07:54:42;;;;;;;25.63;22.98;;;-1.40;85.10;-1.90;98168.00;;;;4960947;28;87417;-62
2021/12/05 07:57:53;;;;;;;26.17;23.15;;;-1.50;85.60;-1.90;98166.00;;;;4975984;28;87869;-61
2021/12/05 08:16:15;;;;;;;27.27;23.58;;;-1.40;86.90;-1.80;98165.00;;;;4968021;28;86429;-63
2021/12/05 08:18:42;;;;;;;25.63;22.85;;;-1.40;86.90;-1.80;98166.00;;;;4960950;28;86733;-62
2021/12/05 08:21:10;;;;;;;28.13;23.58;;;-1.40;86.90;-1.70;98165.00;;;;4960357;28;87133;-62
2021/12/05 08:23:36;;;;;;;25.77;23.13;;;-1.40;86.90;-1.70;98160.00;;;;4966101;28;88622;-62
2021/12/05 08:26:18;;;;;;;27.45;23.05;;;-1.30;86.80;-1.70;98159.00;;;;4959689;28;88810;-63
2021/12/05 08:28:58;;;;;;;22.65;20.25;;;-1.30;86.60;-1.60;98160.00;;;;4960692;28;86863;-65
2021/12/05 08:44:42;;;;;;;26.67;21.90;;;-1.10;86.40;-1.50;98165.00;;;;4959710;28;87119;-61
2021/12/05 10:08:55;;;;;;;19.52;17.52;;;-0.50;83.60;-0.80;98190.00;;;;4981012;28;87200;-63
2021/12/05 10:17:10;;;;;;;17.70;15.38;;;-0.40;84.30;-0.70;98197.00;;;;4968184;28;87281;-63
2021/12/05 10:37:20;;;;;;;21.25;17.38;;;-0.30;83.90;-0.60;98205.00;;;;4961621;28;87460;-64
2021/12/05 10:40:05;;;;;;;26.25;18.92;;;-0.30;84.40;-0.60;98208.00;;;;4961141;28;87869;-64
2021/12/05 10:42:45;;;;;;;21.83;18.40;;;-0.30;84.10;-0.70;98199.00;;;;4961954;28;87336;-62
2021/12/05 10:45:44;;;;;;;18.67;16.70;;;-0.30;84.50;-0.60;98211.00;;;;4961157;28;87754;-61
2021/12/05 10:48:22;;;;;;;20.67;16.48;;;-0.30;84.30;-0.60;98204.00;;;;4960366;28;87636;-61
2021/12/05 10:50:59;;;;;;;18.73;16.63;;;-0.40;84.20;-0.50;98209.00;;;;4960759;28;86842;-61
2021/12/05 10:53:43;;;;;;;18.00;16.10;;;-0.30;84.20;-0.60;98206.00;;;;4960931;28;86994;-61
2021/12/05 10:56:33;;;;;;;17.85;15.48;;;-0.30;83.90;-0.60;98211.00;;;;4969433;28;86992;-62
2021/12/05 10:59:14;;;;;;;17.45;15.15;;;-0.30;84.00;-0.50;98210.00;;;;4997195;28;87941;-61
2021/12/05 11:01:49;;;;;;;21.70;16.23;;;-0.20;84.10;-0.50;98199.00;;;;4980270;28;87300;-61
2021/12/05 11:04:21;;;;;;;21.42;16.88;;;-0.20;83.80;-0.50;98204.00;;;;4981577;28;86971;-62
2021/12/05 11:07:03;;;;;;;17.85;15.93;;;-0.20;83.90;-0.50;98198.00;;;;4980657;28;88630;-61
2021/12/05 11:09:31;;;;;;;;;;;-0.20;84.20;-0.50;98211.00;;;;4995570;28;88320;-63
2021/12/05 11:12:10;;;;;;;21.77;16.45;;;-0.10;84.30;-0.50;98210.00;;;;4982116;28;86937;-62
2021/12/05 11:14:47;;;;;;;20.65;16.17;;;-0.20;84.40;-0.50;98214.00;;;;4977225;28;87272;-61
2021/12/05 11:17:14;;;;;;;18.80;16.10;;;-0.20;84.30;-0.50;98220.00;;;;4976543;28;87711;-60
2021/12/05 11:20:02;;;;;;;17.25;15.45;;;-0.20;84.40;-0.60;98218.00;;;;4980184;28;87385;-63
2021/12/05 11:22:42;;;;;;;20.58;16.88;;;-0.20;84.40;-0.50;98226.00;;;;4970999;28;87311;-61
2021/12/05 11:25:22;;;;;;;19.73;17.10;;;-0.30;84.40;-0.60;98220.00;;;;4960313;28;86331;-62
2021/12/05 11:27:57;;;;;;;19.13;16.85;;;-0.30;84.10;-0.70;98231.00;;;;4960301;28;87743;-62
2021/12/05 11:30:33;;;;;;;19.00;15.75;;;-0.40;84.30;-0.70;98224.00;;;;4960346;28;88111;-57
2021/12/05 11:33:03;;;;;;;18.67;16.77;;;-0.50;84.30;-0.80;98232.00;;;;4959761;28;88017;-59
2021/12/05 11:35:52;;;;;;;20.45;16.90;;;-0.50;84.60;-0.90;98231.00;;;;4960129;28;87203;-58
2021/12/05 11:38:24;;;;;;;18.98;16.40;;;-0.60;85.00;-0.90;98214.00;;;;4960002;28;87387;-59
2021/12/05 11:41:06;;;;;;;24.30;19.65;;;-0.60;85.40;-1.00;98223.00;;;;4960488;28;87318;-63
2021/12/05 11:43:49;;;;;;;17.35;15.55;;;-0.60;85.60;-1.00;98226.00;;;;4960117;28;87050;-56
2021/12/05 11:46:27;;;;;;;18.25;16.25;;;-0.60;85.60;-1.00;98229.00;;;;4959296;28;87034;-57
2021/12/05 11:49:06;;;;;;;18.05;16.15;;;-0.60;85.20;-1.00;98234.00;;;;4960957;28;87717;-58
2021/12/05 11:51:45;;;;;;;18.27;15.43;;;-0.60;85.30;-1.00;98238.00;;;;4960704;28;87466;-62
2021/12/05 11:54:43;;;;;;;20.90;17.15;;;-0.60;84.70;-1.00;98237.00;;;;4960636;28;86860;-62
2021/12/05 11:57:29;;;;;;;19.00;17.20;;;-0.70;85.10;-1.00;98248.00;;;;4960193;28;87279;-62
2021/12/05 12:00:19;;;;;;;18.95;17.02;;;-0.70;85.20;-1.10;98249.00;;;;4958895;28;89710;-62
2021/12/05 12:02:47;;;;;;;19.00;17.05;;;-0.80;85.40;-1.20;98239.00;;;;4959357;28;88164;-61
2021/12/05 12:05:24;;;;;;;26.20;17.58;;;-0.80;85.40;-1.20;98248.00;;;;4960212;28;87302;-60
2021/12/05 12:08:07;;;;;;;21.75;17.10;;;-0.80;85.90;-1.20;98242.00;;;;4964457;28;87210;-60
2021/12/05 12:10:43;;;;;;;18.70;16.70;;;-0.80;85.90;-1.20;98244.00;;;;4980027;28;87694;-60
2021/12/05 12:13:15;;;;;;;20.52;17.42;;;-0.80;86.00;-1.20;98249.00;;;;4980256;28;87599;-60
2021/12/05 12:15:46;;;;;;;18.85;16.00;;;-0.80;85.80;-1.20;98242.00;;;;4966943;28;86880;-60
2021/12/05 12:18:26;;;;;;;22.60;18.53;;;-0.80;85.80;-1.20;98241.00;;;;4960670;28;86240;-61
2021/12/05 12:20:54;;;;;;;20.77;18.70;;;-0.90;86.00;-1.20;98244.00;;;;4961505;28;87699;-60
2021/12/05 12:23:22;;;;;;;21.92;17.95;;;-0.90;86.10;-1.20;98241.00;;;;4973779;28;88091;-61
2021/12/05 12:25:54;;;;;;;25.63;20.10;;;-0.80;86.50;-1.20;98238.00;;;;4983142;28;87917;-60
2021/12/05 12:28:22;;;;;;;23.40;19.27;;;-0.90;86.70;-1.20;98252.00;;;;4983070;28;87183;-63
2021/12/05 12:30:57;;;;;;;32.95;20.20;;;-0.80;86.90;-1.20;98251.00;;;;4982598;28;88060;-60
2021/12/05 12:33:30;;;;;;;24.38;20.15;;;-0.80;87.50;-1.20;98254.00;;;;4982087;28;87882;-60
2021/12/05 12:35:57;;;;;;;31.65;21.77;;;-0.80;87.50;-1.20;98263.00;;;;4983000;28;87278;-60
2021/12/05 12:38:45;;;;;;;24.95;19.70;;;-0.80;87.40;-1.20;98258.00;;;;4983193;28;87017;-60
2021/12/05 12:41:22;;;;;;;27.50;21.52;;;-0.90;87.50;-1.30;98257.00;;;;4982754;28;87612;-62
2021/12/05 12:43:56;;;;;;;26.67;21.23;;;-0.90;87.50;-1.30;98259.00;;;;4983721;28;87193;-63
2021/12/05 12:46:37;;;;;;;27.00;21.25;;;-0.90;87.50;-1.30;98259.00;;;;4981762;28;87046;-62
2021/12/05 12:49:15;;;;;;;24.45;21.08;;;-0.90;87.80;-1.30;98262.00;;;;4966106;28;87476;-55
2021/12/05 12:51:44;;;;;;;26.33;19.35;;;-0.90;87.90;-1.30;98262.00;;;;4983328;28;88715;-61
2021/12/05 12:54:18;;;;;;;29.00;20.05;;;-0.90;88.20;-1.30;98260.00;;;;4982839;28;90397;-60
2021/12/05 12:57:06;;;;;;;24.13;20.73;;;-0.90;88.30;-1.30;98256.00;;;;4988532;28;87038;-62
2021/12/05 12:59:39;;;;;;;23.17;19.48;;;-0.90;88.00;-1.30;98255.00;;;;4982992;28;86972;-61
2021/12/05 13:02:28;;;;;;;24.00;18.42;;;-0.90;88.10;-1.20;98262.00;;;;4982065;28;88100;-59
2021/12/05 13:05:40;;;;;;;23.42;19.15;;;-0.80;88.10;-1.20;98267.00;;;;4982868;28;87485;-59
2021/12/05 13:11:05;;;;;;;23.85;19.45;;;-0.90;88.00;-1.20;98259.00;;;;4983396;28;86291;-59
2021/12/05 13:13:36;;;;;;;20.25;18.08;;;-0.90;88.00;-1.30;98271.00;;;;4982371;28;87772;-62
2021/12/05 13:16:27;;;;;;;22.33;18.52;;;-0.90;88.20;-1.30;98285.00;;;;4988620;28;88493;-61
2021/12/05 13:19:12;;;;;;;22.30;18.98;;;-0.90;88.10;-1.30;98274.00;;;;4962612;28;87806;-61
2021/12/05 13:21:43;;;;;;;21.50;17.60;;;-0.90;88.10;-1.30;98272.00;;;;4978233;28;87536;-59
2021/12/05 13:24:37;;;;;;;24.35;18.92;;;-0.90;88.40;-1.30;98278.00;;;;4968861;28;87767;-58
2021/12/05 13:27:24;;;;;;;25.35;20.83;;;-0.90;88.20;-1.30;98272.00;;;;4962838;28;88026;-60
2021/12/05 13:29:54;;;;;;;24.90;21.20;;;-0.90;88.40;-1.30;98275.00;;;;4962467;28;86931;-60
2021/12/05 13:32:25;;;;;;;24.23;21.70;;;-0.90;88.40;-1.30;98285.00;;;;4959372;28;87896;-56
2021/12/05 13:35:02;;;;;;;21.55;19.20;;;-0.90;88.50;-1.30;98287.00;;;;4961437;28;90865;-58
2021/12/05 13:37:48;;;;;;;25.08;20.65;;;-0.90;88.60;-1.30;98287.00;;;;4978441;28;88459;-55
2021/12/05 13:40:26;;;;;;;22.20;19.98;;;-0.90;88.60;-1.30;98285.00;;;;4980054;28;87984;-57
2021/12/05 13:43:05;;;;;;;21.90;19.55;;;-0.90;88.50;-1.30;98283.00;;;;4963051;28;86993;-56
2021/12/05 13:45:43;;;;;;;21.15;18.98;;;-0.90;88.10;-1.40;98291.00;;;;4961914;28;89085;-54
2021/12/05 13:48:29;;;;;;;21.40;19.25;;;-0.90;88.00;-1.40;98286.00;;;;4962221;28;88388;-57
2021/12/05 13:50:58;;;;;;;23.73;19.67;;;-0.90;88.10;-1.40;98294.00;;;;4960924;28;86964;-58
2021/12/05 13:53:32;;;;;;;22.55;20.15;;;-1.00;88.10;-1.40;98301.00;;;;4961784;28;87146;-56
2021/12/05 13:56:07;;;;;;;21.08;18.50;;;-1.00;88.20;-1.40;98302.00;;;;4968501;28;89071;-56
2021/12/05 13:58:45;;;;;;;20.17;18.08;;;-1.00;88.50;-1.30;98312.00;;;;4981155;28;88903;-59
2021/12/05 14:01:25;;;;;;;25.05;20.67;;;-0.90;88.40;-1.40;98310.00;;;;4981485;28;87011;-59
2021/12/05 14:04:16;;;;;;;24.20;18.88;;;-1.00;87.80;-1.30;98320.00;;;;4982298;28;86203;-58
2021/12/05 14:06:47;;;;;;;21.80;18.35;;;-1.00;88.10;-1.30;98318.00;;;;4981663;28;86903;-57
2021/12/05 14:09:40;;;;;;;19.42;17.60;;;-0.90;87.80;-1.30;98312.00;;;;4980391;28;87183;-58
2021/12/05 14:12:10;;;;;;;20.17;18.05;;;-1.00;87.50;-1.30;98318.00;;;;4981177;28;87922;-58
2021/12/05 14:14:45;;;;;;;24.30;21.50;;;-0.90;87.80;-1.30;98318.00;;;;4977401;28;87117;-59
2021/12/05 14:17:21;;;;;;;24.30;19.60;;;-0.90;87.50;-1.40;98334.00;;;;4961694;28;87737;-57
2021/12/05 14:19:59;;;;;;;23.15;19.40;;;-1.00;87.60;-1.40;98318.00;;;;4961817;28;87210;-57
2021/12/05 14:22:31;;;;;;;23.05;20.55;;;-1.00;87.60;-1.40;98328.00;;;;4964917;28;87681;-57
2021/12/05 14:25:08;;;;;;;25.42;20.83;;;-1.00;88.20;-1.40;98330.00;;;;4963696;28;86938;-59
2021/12/05 14:27:40;;;;;;;23.00;18.15;;;-1.00;88.00;-1.40;98323.00;;;;4961201;28;88284;-57
2021/12/05 14:30:11;;;;;;;24.45;18.88;;;-1.00;88.00;-1.40;98316.00;;;;4961319;28;87994;-58
2021/12/05 14:32:42;;;;;;;19.47;17.33;;;-1.00;87.90;-1.40;98332.00;;;;4961953;28;87339;-58
2021/12/05 14:35:18;;;;;;;23.08;17.45;;;-1.00;87.50;-1.40;98320.00;;;;4961674;28;87236;-57
2021/12/05 14:37:47;;;;;;;22.13;19.65;;;-1.00;87.30;-1.40;98334.00;;;;4960564;28;88736;-58
2021/12/05 14:40:21;;;;;;;22.98;20.30;;;-1.00;87.30;-1.40;98336.00;;;;4961162;28;88528;-56
2021/12/05 14:42:51;;;;;;;19.58;16.88;;;-1.00;87.30;-1.40;98339.00;;;;4960983;28;86967;-58
2021/12/05 14:45:24;;;;;;;26.50;19.15;;;-1.00;87.40;-1.30;98345.00;;;;4961652;28;86973;-57
2021/12/05 14:47:55;;;;;;;21.08;18.48;;;-1.00;87.30;-1.40;98342.00;;;;4961532;28;88783;-61
2021/12/05 14:50:26;;;;;;;19.63;17.63;;;-1.00;87.20;-1.40;98341.00;;;;4960378;28;87362;-57
2021/12/05 14:52:56;;;;;;;20.37;18.20;;;-1.00;87.30;-1.40;98340.00;;;;4960555;28;87203;-57
2021/12/05 14:55:25;;;;;;;21.92;19.58;;;-1.00;87.10;-1.40;98346.00;;;;4961675;28;86668;-56
2021/12/05 14:58:03;;;;;;;20.35;18.25;;;-1.00;87.30;-1.40;98348.00;;;;4961053;28;87585;-58
2021/12/05 15:00:42;;;;;;;24.77;19.15;;;-1.10;86.90;-1.50;98356.00;;;;4960927;28;87454;-58
2021/12/05 15:03:15;;;;;;;21.42;18.10;;;-1.10;87.00;-1.50;98354.00;;;;4960602;28;87891;-58
2021/12/05 15:05:53;;;;;;;22.13;19.90;;;-1.10;87.20;-1.50;98353.00;;;;4961343;28;86943;-58
2021/12/05 15:08:22;;;;;;;24.55;19.40;;;-1.10;87.10;-1.50;98353.00;;;;4960149;28;87647;-58
2021/12/05 15:11:07;;;;;;;21.63;19.23;;;-1.10;87.00;-1.50;98354.00;;;;4963428;28;86968;-55
2021/12/05 15:13:34;;;;;;;23.50;18.17;;;-1.10;87.00;-1.50;98354.00;;;;4961799;28;87212;-57
2021/12/05 15:16:01;;;;;;;20.30;17.00;;;-1.10;87.20;-1.40;98366.00;;;;4968087;28;88708;-59
2021/12/05 15:18:34;;;;;;;21.95;19.65;;;-1.10;87.00;-1.40;98358.00;;;;4960412;28;87033;-54
2021/12/05 15:21:01;;;;;;;23.88;20.02;;;-1.00;86.80;-1.40;98355.00;;;;4963113;28;87643;-58
2021/12/05 15:23:31;;;;;;;21.33;19.02;;;-1.10;87.00;-1.40;98369.00;;;;4974344;28;87374;-57
2021/12/05 15:26:01;;;;;;;22.70;20.27;;;-1.00;86.90;-1.40;98361.00;;;;4960653;28;86963;-57
2021/12/05 15:28:27;;;;;;;21.70;19.50;;;-1.00;86.80;-1.40;98351.00;;;;4960291;28;88350;-56
2021/12/05 15:30:53;;;;;;;25.65;23.05;;;-1.00;86.80;-1.40;98363.00;;;;4960414;28;88340;-59
2021/12/05 15:33:23;;;;;;;23.92;21.42;;;-1.00;87.00;-1.40;98361.00;;;;4960866;28;86966;-58
2021/12/05 15:35:51;;;;;;;31.00;23.05;;;-1.00;86.90;-1.40;98367.00;;;;4960500;28;87183;-60
2021/12/05 15:38:24;;;;;;;23.67;21.20;;;-1.00;86.60;-1.50;98364.00;;;;4960597;28;87927;-59
2021/12/05 15:41:03;;;;;;;26.20;23.50;;;-1.10;86.40;-1.60;98368.00;;;;4960947;28;87361;-62
2021/12/05 15:43:35;;;;;;;25.90;22.48;;;-1.20;86.70;-1.60;98363.00;;;;4961309;28;87178;-59
2021/12/05 15:46:04;;;;;;;24.92;22.33;;;-1.20;86.60;-1.60;98367.00;;;;4960167;28;86314;-60
2021/12/05 15:48:36;;;;;;;24.90;22.42;;;-1.20;86.80;-1.60;98371.00;;;;4960668;28;88177;-61
2021/12/05 15:51:11;;;;;;;23.95;21.50;;;-1.20;87.10;-1.60;98367.00;;;;4960506;28;88867;-61
2021/12/05 15:53:39;;;;;;;24.45;21.85;;;-1.20;86.70;-1.70;98371.00;;;;4959186;28;88278;-61
2021/12/05 15:56:10;;;;;;;24.52;22.02;;;-1.30;86.70;-1.70;98377.00;;;;4962456;28;86992;-60
2021/12/05 15:58:51;;;;;;;24.58;21.45;;;-1.30;86.90;-1.70;98377.00;;;;4964241;28;87326;-61
2021/12/05 16:01:23;;;;;;;26.13;22.63;;;-1.40;86.90;-1.70;98392.00;;;;4979095;28;87083;-61
2021/12/05 16:04:06;;;;;;;26.35;22.58;;;-1.30;87.10;-1.70;98386.00;;;;4963976;28;86979;-60
2021/12/05 16:06:39;;;;;;;26.20;23.13;;;-1.40;86.90;-1.70;98375.00;;;;4963529;28;87138;-60
2021/12/05 16:09:14;;;;;;;23.88;21.38;;;-1.30;87.10;-1.70;98376.00;;;;4963694;28;87649;-60
2021/12/05 16:11:41;;;;;;;24.13;21.55;;;-1.30;87.10;-1.70;98372.00;;;;4964206;28;87942;-60
2021/12/05 16:14:07;;;;;;;23.98;21.08;;;-1.20;87.20;-1.60;98377.00;;;;4964248;28;87426;-61
2021/12/05 16:16:35;;;;;;;27.90;24.30;;;-1.30;87.10;-1.70;98386.00;;;;4976181;28;87115;-60
2021/12/05 16:19:07;;;;;;;25.52;22.80;;;-1.30;87.10;-1.70;98383.00;;;;4998395;28;89183;-60
2021/12/05 16:21:36;;;;;;;;;;;-1.20;87.20;-1.60;98384.00;;;;4983746;28;88334;-60
2021/12/05 16:24:13;;;;;;;26.60;23.83;;;-1.20;87.20;-1.60;98396.00;;;;4973725;28;87032;-60
2021/12/05 16:26:42;;;;;;;26.83;23.95;;;-1.20;87.20;-1.70;98391.00;;;;4963844;28;87007;-61
2021/12/05 16:29:15;;;;;;;26.38;23.65;;;-1.20;87.10;-1.70;98397.00;;;;4963499;28;87567;-60
2021/12/05 16:31:53;;;;;;;32.42;25.25;;;-1.30;87.10;-1.70;98398.00;;;;4963694;28;87031;-60
2021/12/05 16:34:29;;;;;;;30.83;26.20;;;-1.30;87.30;-1.70;98405.00;;;;4963824;28;87314;-60